21:42
Airports
History
Links
Donate
Help keep this website running!
PayPal
Bitcoin
This page is community maintained. The information is intended for PC simulator navigation or reference.
Always use approved charts for navigation.
8S9
Ayres
Ayres (8S9)
Junction City, Oregon, United States (97448)
4
Lat/Lng:44° 14' 47.44" N / 123° 11' 44.33" W
44.246512 / -123.195648
Elevation:340'ft / 104mMSL
ID / ICAO:8S9
Runways:1
Longest:36-18
Grass 547m / 1,795ft
Nearby Weather20:54 GMT 2018-02-20
Nearby weather at KEUG, Mahlon Sweet Field located 8.5 nautical miles from 8S9
Altimeter: 30.16
Visibility: 10.0 statute miles
Wind: 13 knots (from 190°)
Temp: 4°c / 39°f
Humidity: 69.8%

METAR: KEUG 202054Z 19013KT 10SM FEW020 OVC035 04/M01 A3016 RMK AO2 SLP217 60000 T00441011 58014

(Powered by phpweather)
Nearby VORs <50NM
Nearby NDBs
Runway 36 / 18
Dimensions:547.2 x 9.1m 1795' x 30'ft
Surface:Grass
Runway 36 [A]Runway 18 [B]
Heading:018°TH 198°TH
Lat:
Lng:
44° 14' 39.04"N
123° 11' 48.37"W
44° 14' 55.85"N
123° 11' 40.29"W
User Notes and Comments
44° 14' 47.44" N / 123° 11' 44.33" W
Distance To
Airport ID:
Nearby Airports
(R) Strauch Field 4.0 NM
OR47 S 175°
4 Knoxs Private Airstrip 4.4 NM
OR79 NE 47°
(R) Daniels Field 6.9 NM
OR78 ENE 75°
(R) West Point 7.7 NM
OR45 ESE 116°
(C) Mahlon Sweet Field 8.5 NM
KEUG ( WX ) S 185°
4 Waynes Air Service 8.5 NM
OR76 NNE 18°
(R) Briggs 9.1 NM
OR44 SE 134°
VFR Chart
Flight Planning at SkyVector.com